createdAt,value
2018-10-02T00:01:05.595Z,2.23
2018-10-02T00:03:33.618Z,2.00
2018-10-02T00:06:01.685Z,1.85
2018-10-02T00:08:29.717Z,2.10
2018-10-02T00:11:03.830Z,2.17
2018-10-02T00:16:16.310Z,2.20
2018-10-02T00:18:44.625Z,2.08
2018-10-02T00:21:12.720Z,2.30
2018-10-02T00:23:40.734Z,2.30
2018-10-02T00:26:08.777Z,2.00
2018-10-02T00:28:36.778Z,2.30
2018-10-02T00:31:04.796Z,2.20
2018-10-02T00:33:32.845Z,2.57
2018-10-02T00:36:00.875Z,2.63
2018-10-02T00:38:29.053Z,2.23
2018-10-02T00:40:57.133Z,2.10
2018-10-02T00:43:25.133Z,2.50
2018-10-02T00:45:53.149Z,2.10
2018-10-02T00:48:21.174Z,2.30
2018-10-02T00:50:49.193Z,2.50
2018-10-02T00:53:17.297Z,2.10
2018-10-02T00:55:45.841Z,1.95
2018-10-02T00:58:13.859Z,2.07
2018-10-02T01:00:41.901Z,1.70
2018-10-02T01:03:09.928Z,2.08
2018-10-02T01:05:38.007Z,2.10
2018-10-02T01:08:06.120Z,2.50
2018-10-02T01:10:34.147Z,2.10
2018-10-02T01:13:02.330Z,2.00
2018-10-02T01:15:30.348Z,1.80
2018-10-02T01:17:58.308Z,2.30
2018-10-02T01:20:26.353Z,2.03
2018-10-02T01:22:54.328Z,2.33
2018-10-02T01:25:22.330Z,2.10
2018-10-02T01:27:50.292Z,2.63
2018-10-02T01:30:18.354Z,2.40
2018-10-02T01:32:46.315Z,2.05
2018-10-02T01:35:14.300Z,2.95
2018-10-02T01:37:42.268Z,2.20
2018-10-02T01:41:13.806Z,2.50
2018-10-02T01:43:42.705Z,2.00
2018-10-02T01:46:10.690Z,2.30
2018-10-02T01:48:38.678Z,1.63
2018-10-02T01:51:06.689Z,2.67
2018-10-02T01:53:34.987Z,2.40
2018-10-02T01:56:03.035Z,1.70
2018-10-02T01:58:31.340Z,2.30
2018-10-02T02:00:59.405Z,2.30
2018-10-02T02:03:27.502Z,1.67
2018-10-02T02:05:55.486Z,2.10
2018-10-02T02:08:23.448Z,1.67
2018-10-02T02:10:51.436Z,2.50
2018-10-02T02:13:19.395Z,2.20
2018-10-02T02:15:47.395Z,2.33
2018-10-02T02:18:15.367Z,2.40
2018-10-02T02:20:43.552Z,2.30
2018-10-02T02:23:11.628Z,2.20
2018-10-02T02:25:39.599Z,2.20
2018-10-02T02:28:07.660Z,1.70
2018-10-02T02:30:35.652Z,2.63
2018-10-02T02:33:03.616Z,3.50
2018-10-02T02:35:31.691Z,3.07
2018-10-02T02:37:59.660Z,2.10
2018-10-02T02:40:27.727Z,2.50
2018-10-02T02:42:55.702Z,2.58
2018-10-02T02:45:23.684Z,2.90
2018-10-02T02:47:57.098Z,3.00
2018-10-02T02:50:30.679Z,3.00
2018-10-02T02:53:15.672Z,3.90
2018-10-02T02:55:43.702Z,3.13
2018-10-02T02:58:11.686Z,3.60
2018-10-02T03:00:39.743Z,3.23
2018-10-02T03:03:07.835Z,3.90
2018-10-02T03:05:35.837Z,3.00
2018-10-02T03:08:03.833Z,3.87
2018-10-02T03:10:31.799Z,3.23
2018-10-02T03:12:59.775Z,3.57
2018-10-02T03:15:27.751Z,3.70
2018-10-02T03:17:55.768Z,3.67
2018-10-02T03:20:23.760Z,3.98
2018-10-02T03:22:51.810Z,3.35
2018-10-02T03:25:19.795Z,3.80
2018-10-02T03:27:47.795Z,3.67
2018-10-02T03:30:15.789Z,3.97
2018-10-02T03:32:43.774Z,3.00
2018-10-02T03:35:11.754Z,3.77
2018-10-02T03:37:39.796Z,3.80
2018-10-02T03:40:07.741Z,3.93
2018-10-02T03:42:35.877Z,3.97
2018-10-02T03:45:03.890Z,4.03
2018-10-02T03:47:31.894Z,7.00
2018-10-02T03:49:59.896Z,3.50
2018-10-02T03:52:28.074Z,3.10
2018-10-02T03:54:56.031Z,3.50
2018-10-02T03:57:24.094Z,4.20
2018-10-02T03:59:52.087Z,3.92
2018-10-02T04:02:20.142Z,3.87
2018-10-02T04:04:48.441Z,3.70
2018-10-02T04:07:16.444Z,3.73
2018-10-02T04:09:44.415Z,3.80
2018-10-02T04:12:12.492Z,3.30
2018-10-02T04:14:40.475Z,4.03
2018-10-02T04:17:08.561Z,3.73
2018-10-02T04:19:36.533Z,3.87
2018-10-02T04:22:04.517Z,3.75
2018-10-02T04:24:32.608Z,3.50
2018-10-02T04:27:00.661Z,4.40
2018-10-02T04:29:28.686Z,3.85
2018-10-02T04:31:56.704Z,3.67
2018-10-02T04:34:24.880Z,3.90
2018-10-02T04:36:52.944Z,4.33
2018-10-02T04:39:21.012Z,4.73
2018-10-02T04:41:49.115Z,4.23
2018-10-02T04:44:17.210Z,4.53
2018-10-02T04:46:45.247Z,4.43
2018-10-02T04:49:13.316Z,5.07
2018-10-02T04:51:41.397Z,4.77
2018-10-02T04:54:09.465Z,4.40
2018-10-02T04:56:37.492Z,5.47
2018-10-02T04:59:05.655Z,4.65
2018-10-02T05:01:33.659Z,4.50
2018-10-02T05:04:01.776Z,4.20
2018-10-02T05:06:29.931Z,4.33
2018-10-02T05:08:58.014Z,4.57
2018-10-02T05:11:26.031Z,4.37
2018-10-02T05:13:54.112Z,5.03
2018-10-02T05:16:22.162Z,5.37
2018-10-02T05:18:50.188Z,5.13
2018-10-02T05:21:18.425Z,6.00
2018-10-02T05:23:46.533Z,6.23
2018-10-02T05:26:14.547Z,5.63
2018-10-02T05:28:42.570Z,5.03
2018-10-02T05:31:10.674Z,5.27
2018-10-02T05:33:38.814Z,5.07
2018-10-02T05:36:06.790Z,5.80
2018-10-02T05:38:41.460Z,6.20
2018-10-02T05:41:09.492Z,6.60
2018-10-02T05:43:37.641Z,6.33
2018-10-02T05:46:05.913Z,5.70
2018-10-02T05:48:34.431Z,5.30
2018-10-02T05:53:43.725Z,5.62
2018-10-02T05:56:11.842Z,5.03
2018-10-02T05:58:39.897Z,4.92
2018-10-02T06:01:07.953Z,6.07
2018-10-02T06:03:36.646Z,7.10
2018-10-02T06:06:04.748Z,5.50
2018-10-02T06:08:32.845Z,4.53
2018-10-02T06:11:00.921Z,4.50
2018-10-02T06:13:29.064Z,5.13
2018-10-02T06:15:57.198Z,5.30
2018-10-02T06:18:25.221Z,4.30
2018-10-02T06:20:53.558Z,4.40
2018-10-02T06:23:21.736Z,4.35
2018-10-02T06:25:49.737Z,5.43
2018-10-02T06:28:20.140Z,4.20
2018-10-02T06:30:48.178Z,3.77
2018-10-02T06:33:16.364Z,3.67
2018-10-02T06:35:44.502Z,3.33
2018-10-02T06:38:12.609Z,4.10
2018-10-02T06:40:40.632Z,3.90
2018-10-02T06:43:08.690Z,4.10
2018-10-02T06:45:36.765Z,3.73
2018-10-02T06:48:05.008Z,4.45
2018-10-02T06:50:33.327Z,2.93
2018-10-02T06:53:01.392Z,2.97
2018-10-02T06:55:29.455Z,3.70
2018-10-02T06:57:57.480Z,3.00
2018-10-02T07:00:25.936Z,3.20
2018-10-02T07:02:54.259Z,3.40
2018-10-02T07:05:22.391Z,2.83
2018-10-02T07:07:50.444Z,3.20
2018-10-02T07:10:18.488Z,3.17
2018-10-02T07:12:46.518Z,2.57
2018-10-02T07:15:14.575Z,3.20
2018-10-02T07:17:42.650Z,3.00
2018-10-02T07:20:10.713Z,2.75
2018-10-02T07:22:38.737Z,2.87
2018-10-02T07:25:07.089Z,3.23
2018-10-02T07:27:35.188Z,2.90
2018-10-02T07:30:03.226Z,2.97
2018-10-02T07:32:31.265Z,2.90
2018-10-02T07:34:59.404Z,3.10
2018-10-02T07:37:27.414Z,2.55
2018-10-02T07:39:55.509Z,3.67
2018-10-02T07:42:23.575Z,3.30
2018-10-02T07:44:51.723Z,3.00
2018-10-02T07:47:19.723Z,3.17
2018-10-02T07:49:47.757Z,3.70
2018-10-02T07:52:15.829Z,2.90
2018-10-02T07:54:43.946Z,4.77
2018-10-02T07:57:11.959Z,3.30
2018-10-02T07:59:40.106Z,3.80
2018-10-02T08:02:08.259Z,3.23
2018-10-02T08:04:36.519Z,3.20
2018-10-02T08:07:04.609Z,3.63
2018-10-02T08:09:32.637Z,4.03
2018-10-02T08:12:00.775Z,3.50
2018-10-02T08:14:29.017Z,2.93
2018-10-02T08:16:57.057Z,3.23
2018-10-02T08:19:25.107Z,3.50
2018-10-02T08:24:30.912Z,3.63
2018-10-02T08:26:58.977Z,3.20
2018-10-02T08:29:27.163Z,3.17
2018-10-02T08:31:55.133Z,2.40
2018-10-02T08:34:23.245Z,3.70
2018-10-02T08:36:51.257Z,4.03
2018-10-02T08:39:19.280Z,2.70
2018-10-02T08:41:47.346Z,3.70
2018-10-02T08:44:15.442Z,3.00
2018-10-02T08:46:43.645Z,2.53
2018-10-02T08:49:11.705Z,3.67
2018-10-02T08:51:39.859Z,3.80
2018-10-02T08:54:07.989Z,2.53
2018-10-02T08:56:35.975Z,2.80
2018-10-02T08:59:04.003Z,2.60
2018-10-02T09:01:32.066Z,2.70
2018-10-02T09:04:00.111Z,2.30
2018-10-02T09:06:28.286Z,2.30
2018-10-02T09:08:56.324Z,3.13
2018-10-02T09:11:24.582Z,2.43
2018-10-02T09:13:52.743Z,2.87
2018-10-02T09:16:20.798Z,3.30
2018-10-02T09:18:49.032Z,2.70
2018-10-02T09:21:17.196Z,2.90
2018-10-02T09:23:45.363Z,2.97
2018-10-02T09:28:54.258Z,2.90
2018-10-02T09:31:27.762Z,2.77
2018-10-02T09:34:01.258Z,3.10
2018-10-02T09:36:36.010Z,2.87
2018-10-02T09:39:10.609Z,2.22
2018-10-02T09:43:46.258Z,3.17
2018-10-02T09:46:14.236Z,3.00
2018-10-02T09:48:42.675Z,2.70
2018-10-02T09:51:10.602Z,2.75
2018-10-02T09:53:38.601Z,3.20
2018-10-02T09:56:06.745Z,2.85
2018-10-02T09:58:34.839Z,2.73
2018-10-02T10:01:08.352Z,3.03
2018-10-02T10:03:36.441Z,2.40
2018-10-02T10:06:04.477Z,2.80
2018-10-02T10:08:32.644Z,2.23
2018-10-02T10:13:38.694Z,2.50
2018-10-02T10:16:07.075Z,2.60
2018-10-02T10:18:35.097Z,3.50
2018-10-02T10:21:03.176Z,3.10
2018-10-02T10:23:31.184Z,3.37
2018-10-02T10:25:59.709Z,2.00
2018-10-02T10:28:27.748Z,2.00
2018-10-02T10:30:55.751Z,2.20
2018-10-02T10:33:23.768Z,2.33
2018-10-02T10:35:51.885Z,2.80
2018-10-02T10:38:20.005Z,3.60
2018-10-02T10:40:48.157Z,2.67
2018-10-02T10:43:16.161Z,2.63
2018-10-02T10:45:44.205Z,4.00
2018-10-02T10:48:12.221Z,3.30
2018-10-02T10:50:40.362Z,2.90
2018-10-02T10:53:08.462Z,3.20
2018-10-02T10:55:37.831Z,2.50
2018-10-02T10:58:05.989Z,2.93
2018-10-02T11:00:34.064Z,3.43
2018-10-02T11:03:02.235Z,3.33
2018-10-02T11:05:30.350Z,2.90
2018-10-02T11:07:58.388Z,3.40
2018-10-02T11:10:26.466Z,3.40
2018-10-02T11:12:54.567Z,2.83
2018-10-02T11:15:23.428Z,3.07
2018-10-02T11:17:51.406Z,2.70
2018-10-02T11:20:22.125Z,3.17
2018-10-02T11:22:50.136Z,4.00
2018-10-02T11:25:18.157Z,4.23
2018-10-02T11:27:46.181Z,2.43
2018-10-02T11:30:14.366Z,4.10
2018-10-02T11:32:42.482Z,3.30
2018-10-02T11:48:17.119Z,4.57
2018-10-02T11:50:45.155Z,4.87
2018-10-02T11:53:14.742Z,3.50
2018-10-02T11:55:43.020Z,3.60
2018-10-02T11:58:11.564Z,2.73
2018-10-02T12:00:39.703Z,3.93
2018-10-02T12:03:07.796Z,2.80
2018-10-02T12:05:36.124Z,3.30
2018-10-02T12:08:04.929Z,3.90
2018-10-02T12:10:32.989Z,3.53
2018-10-02T12:13:01.127Z,3.10
2018-10-02T12:15:29.213Z,3.30
2018-10-02T12:17:57.757Z,3.37
2018-10-02T12:20:25.769Z,6.50
2018-10-02T12:22:53.941Z,3.87
2018-10-02T12:25:22.001Z,4.90
2018-10-02T12:27:50.046Z,3.80
2018-10-02T12:30:18.088Z,3.20
2018-10-02T12:32:46.413Z,3.50
2018-10-02T12:35:14.457Z,3.30
2018-10-02T12:37:42.578Z,3.30
2018-10-02T12:40:10.800Z,3.03
2018-10-02T12:42:38.929Z,2.63
2018-10-02T12:45:07.136Z,3.13
2018-10-02T12:47:35.416Z,3.33
2018-10-02T12:50:03.528Z,2.80
2018-10-02T12:52:31.788Z,3.17
2018-10-02T12:54:59.801Z,3.50
2018-10-02T12:57:27.877Z,3.20
2018-10-02T12:59:56.009Z,2.77
2018-10-02T13:02:24.041Z,4.13
2018-10-02T13:04:52.193Z,3.63
2018-10-02T13:07:20.349Z,3.85
2018-10-02T13:09:48.418Z,4.77
2018-10-02T13:12:16.454Z,3.57
2018-10-02T13:14:44.612Z,3.63
2018-10-02T13:17:12.852Z,4.67
2018-10-02T13:19:40.881Z,5.40
2018-10-02T13:22:08.933Z,4.37
2018-10-02T13:24:36.985Z,4.77
2018-10-02T13:27:05.157Z,4.27
2018-10-02T13:29:33.247Z,4.20
2018-10-02T13:32:01.289Z,4.57
2018-10-02T13:34:29.366Z,5.37
2018-10-02T13:36:57.393Z,4.60
2018-10-02T13:39:25.481Z,5.07
2018-10-02T13:41:53.555Z,5.60
2018-10-02T13:44:21.637Z,5.93
2018-10-02T13:46:49.713Z,4.70
2018-10-02T13:49:18.798Z,4.60
2018-10-02T13:51:53.333Z,5.10
2018-10-02T13:54:21.419Z,4.30
2018-10-02T13:56:49.454Z,5.80
2018-10-02T13:59:17.504Z,5.30
2018-10-02T14:01:46.182Z,5.87
2018-10-02T14:04:14.393Z,5.90
2018-10-02T14:06:42.441Z,5.80
2018-10-02T14:09:10.588Z,6.00
2018-10-02T14:11:38.683Z,6.47
2018-10-02T14:14:06.981Z,5.17
2018-10-02T14:16:36.230Z,5.63
2018-10-02T14:19:06.364Z,6.42
2018-10-02T14:21:34.693Z,6.03
2018-10-02T14:24:03.738Z,5.73
2018-10-02T14:26:31.759Z,5.67
2018-10-02T14:28:59.817Z,6.30
2018-10-02T14:31:27.856Z,5.80
2018-10-02T14:33:55.962Z,5.00
2018-10-02T14:36:24.052Z,5.33
2018-10-02T14:38:52.093Z,5.23
2018-10-02T14:41:20.160Z,5.53
2018-10-02T14:43:48.459Z,5.23
2018-10-02T14:46:16.681Z,5.55
2018-10-02T14:48:45.336Z,6.10
2018-10-02T14:51:14.696Z,4.80
2018-10-02T14:53:42.952Z,4.50
2018-10-02T14:56:11.461Z,5.20
2018-10-02T14:58:39.793Z,4.90
2018-10-02T15:01:07.821Z,4.90
2018-10-02T15:03:35.983Z,5.77
2018-10-02T15:06:04.080Z,5.10
2018-10-02T15:08:32.117Z,4.30
2018-10-02T15:11:00.178Z,5.73
2018-10-02T15:13:28.181Z,4.47
2018-10-02T15:15:56.264Z,5.53
2018-10-02T15:18:24.353Z,4.80
2018-10-02T15:20:54.502Z,5.60
2018-10-02T15:23:22.593Z,4.90
2018-10-02T15:25:50.697Z,6.03
2018-10-02T15:28:18.748Z,5.40
2018-10-02T15:30:46.793Z,5.93
2018-10-02T15:33:14.982Z,5.90
2018-10-02T15:35:43.084Z,5.70
2018-10-02T15:38:11.307Z,4.83
2018-10-02T15:40:39.410Z,6.27
2018-10-02T15:43:07.775Z,5.83
2018-10-02T15:45:36.408Z,5.37
2018-10-02T15:48:04.795Z,5.03
2018-10-02T15:50:33.061Z,5.03
2018-10-02T15:53:01.282Z,5.00
2018-10-02T15:55:29.340Z,5.13
2018-10-02T15:57:57.551Z,5.27
2018-10-02T16:00:25.626Z,4.83
2018-10-02T16:02:53.698Z,4.97
2018-10-02T16:05:22.149Z,4.85
2018-10-02T16:07:50.362Z,4.57
2018-10-02T16:10:18.403Z,5.10
2018-10-02T16:12:46.492Z,4.90
2018-10-02T16:15:14.598Z,4.60
2018-10-02T16:17:42.696Z,4.30
2018-10-02T16:20:10.821Z,4.20
2018-10-02T16:22:38.921Z,4.20
2018-10-02T16:25:07.018Z,4.60
2018-10-02T16:27:35.122Z,3.83
2018-10-02T16:30:03.772Z,4.57
2018-10-02T16:32:31.958Z,4.50
2018-10-02T16:35:00.132Z,5.80
2018-10-02T16:37:28.148Z,4.00
2018-10-02T16:39:56.561Z,3.67
2018-10-02T16:42:24.584Z,3.63
2018-10-02T16:44:52.605Z,4.00
2018-10-02T16:47:20.633Z,4.40
2018-10-02T16:49:48.655Z,3.90
2018-10-02T16:52:16.724Z,3.33
2018-10-02T16:54:44.822Z,4.27
2018-10-02T16:57:13.104Z,4.43
2018-10-02T16:59:41.108Z,4.90
2018-10-02T17:02:09.570Z,4.00
2018-10-02T17:04:37.605Z,3.43
2018-10-02T17:07:05.924Z,4.00
2018-10-02T17:09:34.007Z,3.83
2018-10-02T17:12:02.009Z,3.80
2018-10-02T17:14:30.020Z,4.20
2018-10-02T17:16:58.082Z,3.87
2018-10-02T17:19:26.121Z,3.97
2018-10-02T17:21:54.192Z,4.90
2018-10-02T17:24:22.216Z,4.23
2018-10-02T17:26:50.268Z,4.30
2018-10-02T17:29:18.311Z,4.50
2018-10-02T17:31:46.369Z,4.47
2018-10-02T17:34:14.456Z,5.63
2018-10-02T17:36:42.623Z,5.00
2018-10-02T17:39:11.809Z,4.90
2018-10-02T17:41:40.129Z,4.90
2018-10-02T17:44:08.136Z,5.17
2018-10-02T17:46:36.148Z,5.10
2018-10-02T17:49:04.258Z,5.20
2018-10-02T17:51:32.330Z,5.20
2018-10-02T17:54:00.350Z,5.30
2018-10-02T17:56:28.553Z,4.90
2018-10-02T17:58:56.760Z,5.50
2018-10-02T18:01:24.966Z,5.03
2018-10-02T18:03:53.114Z,5.10
2018-10-02T18:06:21.260Z,5.50
2018-10-02T18:08:49.268Z,4.30
2018-10-02T18:11:17.405Z,4.63
2018-10-02T18:13:45.461Z,4.70
2018-10-02T18:16:13.482Z,5.90
2018-10-02T18:18:41.516Z,5.13
2018-10-02T18:21:09.825Z,4.90
2018-10-02T18:23:37.989Z,6.20
2018-10-02T18:26:06.154Z,6.00
2018-10-02T18:28:34.309Z,5.53
2018-10-02T18:31:02.333Z,5.87
2018-10-02T18:33:30.342Z,5.70
2018-10-02T18:35:58.476Z,6.37
2018-10-02T18:38:26.893Z,5.60
2018-10-02T18:40:55.052Z,6.90
2018-10-02T18:43:23.522Z,6.20
2018-10-02T18:45:51.779Z,7.43
2018-10-02T18:48:19.802Z,5.97
2018-10-02T18:50:47.849Z,6.53
2018-10-02T18:53:15.881Z,6.80
2018-10-02T18:55:43.909Z,6.97
2018-10-02T18:58:12.639Z,6.95
2018-10-02T19:00:40.640Z,6.60
2018-10-02T19:03:08.777Z,7.27
2018-10-02T19:05:36.880Z,8.00
2018-10-02T19:08:05.375Z,8.30
2018-10-02T19:10:33.474Z,7.83
2018-10-02T19:13:01.476Z,7.53
2018-10-02T19:15:33.857Z,8.80
2018-10-02T19:18:01.881Z,9.40
2018-10-02T19:21:01.502Z,9.25
2018-10-02T19:23:30.216Z,10.00
2018-10-02T19:26:34.072Z,9.70
2018-10-02T19:29:02.079Z,10.13
2018-10-02T19:31:35.764Z,9.67
2018-10-02T19:34:03.805Z,9.80
2018-10-02T19:36:31.928Z,8.37
2018-10-02T19:39:01.760Z,9.50
2018-10-02T19:41:30.320Z,10.05
2018-10-02T19:43:58.365Z,9.67
2018-10-02T19:46:31.729Z,9.90
2018-10-02T19:48:59.741Z,10.20
2018-10-02T19:51:33.244Z,10.40
2018-10-02T19:54:01.289Z,9.13
2018-10-02T19:56:29.413Z,9.43
2018-10-02T19:58:57.450Z,11.27
2018-10-02T20:01:25.461Z,9.20
2018-10-02T20:03:53.501Z,9.50
2018-10-02T20:06:21.536Z,9.83
2018-10-02T20:08:49.564Z,8.53
2018-10-02T20:11:17.557Z,9.53
2018-10-02T20:13:45.640Z,10.57
2018-10-02T20:16:13.625Z,9.90
2018-10-02T20:21:19.220Z,10.60
2018-10-02T20:23:47.330Z,9.80
2018-10-02T20:26:15.419Z,10.53
2018-10-02T20:28:43.557Z,9.10
2018-10-02T20:31:11.579Z,10.10
2018-10-02T20:33:39.609Z,9.07
2018-10-02T20:36:07.833Z,9.50
2018-10-02T20:38:36.448Z,9.43
2018-10-02T20:41:04.683Z,9.17
2018-10-02T20:43:32.829Z,9.40
2018-10-02T20:46:00.949Z,9.20
2018-10-02T20:48:29.017Z,8.67
2018-10-02T20:50:57.077Z,9.53
2018-10-02T20:53:25.192Z,9.07
2018-10-02T20:55:53.333Z,8.93
2018-10-02T20:58:21.618Z,9.80
2018-10-02T21:00:49.737Z,9.07
2018-10-02T21:03:17.869Z,8.40
2018-10-02T21:05:45.909Z,7.83
2018-10-02T21:08:14.032Z,6.80
2018-10-02T21:10:42.145Z,7.90
2018-10-02T21:13:10.277Z,9.83
2018-10-02T21:15:38.541Z,8.20
2018-10-02T21:18:06.858Z,8.50
2018-10-02T21:20:34.987Z,8.50
2018-10-02T21:23:02.968Z,6.77
2018-10-02T21:25:31.028Z,7.87
2018-10-02T21:27:59.110Z,7.90
2018-10-02T21:30:27.275Z,8.13
2018-10-02T21:32:55.394Z,7.13
2018-10-02T21:35:23.522Z,8.47
2018-10-02T21:37:52.302Z,5.67
2018-10-02T21:40:20.749Z,7.07
2018-10-02T21:42:48.740Z,5.80
2018-10-02T21:45:16.994Z,5.12
2018-10-02T21:47:45.023Z,5.33
2018-10-02T21:50:13.081Z,5.10
2018-10-02T21:52:41.104Z,5.17
2018-10-02T21:55:09.195Z,5.50
2018-10-02T21:57:37.204Z,5.73
2018-10-02T22:00:06.396Z,4.80
2018-10-02T22:02:34.407Z,6.40
2018-10-02T22:05:08.164Z,4.73
2018-10-02T22:07:36.240Z,5.20
2018-10-02T22:10:04.301Z,6.40
2018-10-02T22:12:32.312Z,5.00
2018-10-02T22:15:00.446Z,4.73
2018-10-02T22:17:28.476Z,3.73
2018-10-02T22:19:56.573Z,5.23
2018-10-02T22:22:25.339Z,5.60
2018-10-02T22:24:53.576Z,4.07
2018-10-02T22:27:21.613Z,4.40
2018-10-02T22:29:49.836Z,5.03
2018-10-02T22:32:18.667Z,3.83
2018-10-02T22:34:46.716Z,6.30
2018-10-02T22:37:14.768Z,4.87
2018-10-02T22:39:42.836Z,3.53
2018-10-02T22:42:11.014Z,3.33
2018-10-02T22:44:39.060Z,5.43
2018-10-02T22:47:07.316Z,5.33
2018-10-02T22:49:35.449Z,4.23
2018-10-02T22:52:03.652Z,3.80
2018-10-02T22:54:32.029Z,4.43
2018-10-02T22:57:00.057Z,4.30
2018-10-02T22:59:28.220Z,4.90
2018-10-02T23:01:56.433Z,4.50
2018-10-02T23:04:24.953Z,4.43
2018-10-02T23:06:52.989Z,3.70
2018-10-02T23:09:21.117Z,4.30
2018-10-02T23:11:49.212Z,4.30
2018-10-02T23:14:17.520Z,3.67
2018-10-02T23:16:45.565Z,4.87
2018-10-02T23:19:13.595Z,5.77
2018-10-02T23:21:41.637Z,3.90
2018-10-02T23:24:09.696Z,4.20
2018-10-02T23:26:37.913Z,4.07
2018-10-02T23:29:05.931Z,4.70
2018-10-02T23:34:08.883Z,3.85
2018-10-02T23:36:39.056Z,5.37
2018-10-02T23:39:08.532Z,4.53
2018-10-02T23:41:36.545Z,5.30
2018-10-02T23:44:04.996Z,4.60
2018-10-02T23:46:33.125Z,4.93
2018-10-02T23:49:01.609Z,4.70
2018-10-02T23:51:29.833Z,5.20
2018-10-02T23:53:57.923Z,4.00
2018-10-02T23:56:26.148Z,5.03
2018-10-02T23:58:54.215Z,5.23
